Time;durP1;ratioP1;P1;durP2;ratioP2;P2;SDS_P1;SDS_P2;PMS_P1;PMS_P2;Temp;Humidity;BMP_temperature;BMP_pressure;BME280_temperature;BME280_humidity;BME280_pressure;Samples;Min_cycle;Max_cycle;Signal;HPM_P1;HPM_P2
2023/06/29 00:01:01;;;;;;;22.10;12.52;;;;;;;;;;5115625;28;20030;-72
2023/06/29 00:03:27;;;;;;;14.95;11.18;;;;;;;;;;5115476;28;20040;-72
2023/06/29 00:05:57;;;;;;;17.52;11.63;;;;;;;;;;5115344;28;20020;-72
2023/06/29 00:08:24;;;;;;;19.52;12.65;;;;;;;;;;5115673;28;20027;-72
2023/06/29 00:10:51;;;;;;;17.73;12.65;;;;;;;;;;5114921;28;20030;-72
2023/06/29 00:13:17;;;;;;;16.15;11.70;;;;;;;;;;5115111;28;20038;-72
2023/06/29 00:15:44;;;;;;;15.98;11.95;;;;;;;;;;5080252;28;20399;-72
2023/06/29 00:18:12;;;;;;;17.73;11.82;;;;;;;;;;5115115;28;20027;-72
2023/06/29 00:20:39;;;;;;;18.80;12.77;;;;;;;;;;5115325;28;20019;-72
2023/06/29 00:23:06;;;;;;;23.15;12.65;;;;;;;;;;5114943;28;20028;-72
2023/06/29 00:25:32;;;;;;;16.00;11.82;;;;;;;;;;5114559;28;20035;-72
2023/06/29 00:27:58;;;;;;;19.90;12.35;;;;;;;;;;5114873;28;20033;-72
2023/06/29 00:30:25;;;;;;;18.73;12.30;;;;;;;;;;5114875;28;20032;-72
2023/06/29 00:32:51;;;;;;;21.70;12.60;;;;;;;;;;5115026;28;20035;-72
2023/06/29 00:35:18;;;;;;;18.40;13.13;;;;;;;;;;5115205;28;20040;-72
2023/06/29 00:37:44;;;;;;;16.85;10.90;;;;;;;;;;5115025;28;20026;-72
2023/06/29 00:40:11;;;;;;;23.17;11.93;;;;;;;;;;5114645;28;20037;-72
2023/06/29 00:42:37;;;;;;;23.38;12.35;;;;;;;;;;5115009;28;20023;-72
2023/06/29 00:45:04;;;;;;;17.48;12.48;;;;;;;;;;5115056;28;20035;-72
2023/06/29 00:57:39;;;;;;;22.20;12.68;;;;;;;;;;5126632;27;20035;-72
2023/06/29 01:00:10;;;;;;;17.88;12.32;;;;;;;;;;5114432;28;20027;-72
2023/06/29 01:02:40;;;;;;;;;;;;;;;;;;5114610;28;20019;-72
2023/06/29 01:05:10;;;;;;;17.98;12.35;;;;;;;;;;5114289;28;19923;-72
2023/06/29 01:07:39;;;;;;;20.25;12.45;;;;;;;;;;5114242;28;20548;-72
2023/06/29 01:10:08;;;;;;;22.48;12.27;;;;;;;;;;5113774;28;20034;-72
2023/06/29 01:12:35;;;;;;;17.45;12.30;;;;;;;;;;5114283;28;20031;-72
2023/06/29 01:15:02;;;;;;;18.52;12.23;;;;;;;;;;5114154;28;20015;-72
2023/06/29 01:17:30;;;;;;;17.42;12.80;;;;;;;;;;5114257;28;20028;-72
2023/06/29 01:19:57;;;;;;;21.05;12.93;;;;;;;;;;5113955;28;20026;-72
2023/06/29 01:22:53;;;;;;;17.90;12.02;;;;;;;;;;5113889;28;20045;-72
2023/06/29 01:25:20;;;;;;;16.40;12.45;;;;;;;;;;5050773;28;20505;-72
2023/06/29 01:27:47;;;;;;;18.95;12.68;;;;;;;;;;5050823;28;20569;-72
2023/06/29 01:30:13;;;;;;;19.35;12.63;;;;;;;;;;5034117;28;20424;-72
2023/06/29 01:32:40;;;;;;;18.33;12.23;;;;;;;;;;5050799;28;20456;-72
2023/06/29 01:35:07;;;;;;;15.95;12.60;;;;;;;;;;5050843;28;20039;-72
2023/06/29 01:37:39;;;;;;;18.00;12.68;;;;;;;;;;5050835;28;20028;-72
2023/06/29 01:40:08;;;;;;;18.70;12.02;;;;;;;;;;5050269;28;20025;-72
2023/06/29 01:42:36;;;;;;;16.50;12.63;;;;;;;;;;5050589;28;20128;-72
2023/06/29 01:45:03;;;;;;;19.33;12.55;;;;;;;;;;5050850;28;20055;-72
2023/06/29 01:47:30;;;;;;;19.63;12.52;;;;;;;;;;5050579;28;20039;-72
2023/06/29 01:49:56;;;;;;;18.52;12.52;;;;;;;;;;5050649;28;20086;-72
2023/06/29 01:52:23;;;;;;;18.10;12.23;;;;;;;;;;5050321;28;20025;-72
2023/06/29 01:54:50;;;;;;;19.88;12.63;;;;;;;;;;5050579;28;20471;-72
2023/06/29 01:57:17;;;;;;;15.82;11.48;;;;;;;;;;5050487;28;20021;-72
2023/06/29 01:59:44;;;;;;;17.63;12.23;;;;;;;;;;5050694;28;20025;-72
2023/06/29 02:02:10;;;;;;;20.27;12.88;;;;;;;;;;5080325;28;20408;-72
2023/06/29 02:04:36;;;;;;;18.05;12.40;;;;;;;;;;5092634;28;20040;-72
2023/06/29 02:07:03;;;;;;;19.17;12.98;;;;;;;;;;5092691;28;20038;-72
2023/06/29 02:09:30;;;;;;;18.33;12.48;;;;;;;;;;5092675;28;20054;-72
2023/06/29 02:11:56;;;;;;;16.48;12.10;;;;;;;;;;5092721;28;20026;-72
2023/06/29 02:14:23;;;;;;;16.60;12.27;;;;;;;;;;5092840;28;20028;-71
2023/06/29 02:16:51;;;;;;;20.52;12.32;;;;;;;;;;5092798;28;20050;-72
2023/06/29 02:19:17;;;;;;;19.75;12.13;;;;;;;;;;5092030;28;20407;-72
2023/06/29 02:21:44;;;;;;;19.40;13.23;;;;;;;;;;5092300;28;20024;-72
2023/06/29 02:24:10;;;;;;;19.75;12.57;;;;;;;;;;5092469;28;20032;-72
2023/06/29 02:26:36;;;;;;;17.65;12.57;;;;;;;;;;5097612;28;20022;-72
2023/06/29 02:29:03;;;;;;;23.98;12.77;;;;;;;;;;5112891;28;20360;-72
2023/06/29 02:31:29;;;;;;;17.67;12.30;;;;;;;;;;5112401;28;20048;-72
2023/06/29 02:33:56;;;;;;;20.98;13.13;;;;;;;;;;5112732;28;20031;-72
2023/06/29 02:36:22;;;;;;;16.50;12.05;;;;;;;;;;5112733;28;20028;-72
2023/06/29 02:38:49;;;;;;;20.25;12.30;;;;;;;;;;5112668;28;20027;-72
2023/06/29 02:41:15;;;;;;;19.00;12.20;;;;;;;;;;5112935;28;20022;-72
2023/06/29 02:43:41;;;;;;;17.63;12.05;;;;;;;;;;5112639;28;20087;-72
2023/06/29 02:46:08;;;;;;;17.27;12.63;;;;;;;;;;5112820;28;20036;-72
2023/06/29 02:48:34;;;;;;;18.52;12.55;;;;;;;;;;5112566;28;20030;-72
2023/06/29 02:51:00;;;;;;;18.38;12.35;;;;;;;;;;5112495;28;20042;-72
2023/06/29 02:53:26;;;;;;;18.80;12.73;;;;;;;;;;5112425;28;20024;-72
2023/06/29 02:55:53;;;;;;;20.50;12.77;;;;;;;;;;5112778;28;20136;-72
2023/06/29 02:58:19;;;;;;;16.08;11.65;;;;;;;;;;5112760;28;20023;-72
2023/06/29 03:00:45;;;;;;;18.77;12.63;;;;;;;;;;5112479;28;20032;-72
2023/06/29 03:03:12;;;;;;;18.40;13.55;;;;;;;;;;5094169;28;20399;-72
2023/06/29 03:05:38;;;;;;;19.50;12.60;;;;;;;;;;5112404;28;20024;-72
2023/06/29 03:08:04;;;;;;;17.65;12.43;;;;;;;;;;5112416;28;20026;-72
2023/06/29 03:10:31;;;;;;;18.05;12.55;;;;;;;;;;5112343;28;20077;-72
2023/06/29 03:12:57;;;;;;;23.02;12.52;;;;;;;;;;5112359;28;20177;-72
2023/06/29 03:15:23;;;;;;;19.95;13.43;;;;;;;;;;5112335;28;20023;-72
2023/06/29 03:17:50;;;;;;;19.15;13.00;;;;;;;;;;5112256;28;20024;-71
2023/06/29 03:20:17;;;;;;;21.67;13.15;;;;;;;;;;5111914;28;20472;-71
2023/06/29 03:22:43;;;;;;;19.45;13.48;;;;;;;;;;5112073;28;20072;-71
2023/06/29 03:25:10;;;;;;;17.98;12.50;;;;;;;;;;5112478;28;20040;-72
2023/06/29 03:27:37;;;;;;;19.20;13.10;;;;;;;;;;5112061;28;20044;-72
2023/06/29 03:30:04;;;;;;;21.33;13.40;;;;;;;;;;5112199;28;20022;-72
2023/06/29 03:32:30;;;;;;;21.48;13.18;;;;;;;;;;5115955;28;20027;-72
2023/06/29 03:34:56;;;;;;;20.70;12.43;;;;;;;;;;5115734;28;20023;-72
2023/06/29 03:37:22;;;;;;;19.98;13.02;;;;;;;;;;5116007;28;20015;-72
2023/06/29 03:39:49;;;;;;;18.23;12.27;;;;;;;;;;5116270;28;20100;-71
2023/06/29 03:42:15;;;;;;;19.98;12.00;;;;;;;;;;5115903;28;20020;-72
2023/06/29 03:44:41;;;;;;;16.85;11.82;;;;;;;;;;5097496;28;20043;-71
2023/06/29 03:47:08;;;;;;;23.75;13.02;;;;;;;;;;5115724;28;20028;-72
2023/06/29 03:49:34;;;;;;;22.90;13.52;;;;;;;;;;5115769;28;20032;-72
2023/06/29 03:52:00;;;;;;;17.02;11.77;;;;;;;;;;5115632;28;20023;-72
2023/06/29 03:54:27;;;;;;;20.95;13.23;;;;;;;;;;5115654;28;20024;-72
2023/06/29 03:56:55;;;;;;;18.73;12.45;;;;;;;;;;5097722;28;20027;-72
2023/06/29 03:59:21;;;;;;;17.83;12.07;;;;;;;;;;5115782;28;20076;-72
2023/06/29 04:01:47;;;;;;;21.65;12.68;;;;;;;;;;5115748;28;20038;-71
2023/06/29 04:04:14;;;;;;;19.42;12.48;;;;;;;;;;5115101;28;20047;-72
2023/06/29 04:06:40;;;;;;;20.05;13.00;;;;;;;;;;5115728;28;20015;-72
2023/06/29 04:09:06;;;;;;;20.63;12.63;;;;;;;;;;5097377;28;20028;-72
2023/06/29 04:11:33;;;;;;;16.73;11.45;;;;;;;;;;5115368;28;20034;-72
2023/06/29 04:13:59;;;;;;;19.08;12.50;;;;;;;;;;5115580;28;20088;-72
2023/06/29 04:16:25;;;;;;;21.48;13.20;;;;;;;;;;5097250;28;20027;-72
2023/06/29 04:18:51;;;;;;;20.60;13.15;;;;;;;;;;5114885;28;20020;-72
2023/06/29 04:21:18;;;;;;;18.35;13.13;;;;;;;;;;5115148;28;20407;-72
2023/06/29 04:23:44;;;;;;;19.73;13.00;;;;;;;;;;5115063;28;20024;-72
2023/06/29 04:26:10;;;;;;;17.45;12.73;;;;;;;;;;5115000;28;20205;-72
2023/06/29 04:28:37;;;;;;;24.92;12.82;;;;;;;;;;5115040;28;20028;-72
2023/06/29 04:31:03;;;;;;;21.33;12.80;;;;;;;;;;5093213;28;20037;-72
2023/06/29 04:33:29;;;;;;;18.40;11.85;;;;;;;;;;5094212;28;20038;-71
2023/06/29 04:35:56;;;;;;;17.90;12.15;;;;;;;;;;5093142;28;20504;-71
2023/06/29 04:38:27;;;;;;;17.75;11.90;;;;;;;;;;5094481;28;20016;-71
2023/06/29 04:41:03;;;;;;;17.55;11.85;;;;;;;;;;5094111;28;20020;-72
2023/06/29 04:43:32;;;;;;;18.85;12.23;;;;;;;;;;5094322;28;20044;-71
2023/06/29 04:46:01;;;;;;;18.13;11.98;;;;;;;;;;5094546;28;20023;-72
2023/06/29 04:48:37;;;;;;;17.02;12.15;;;;;;;;;;5093908;28;20031;-72
2023/06/29 04:51:06;;;;;;;20.67;12.93;;;;;;;;;;5094098;28;20060;-72
2023/06/29 04:53:33;;;;;;;17.48;12.07;;;;;;;;;;5094156;28;20053;-72
2023/06/29 04:55:59;;;;;;;18.50;11.15;;;;;;;;;;5094283;28;20050;-71
2023/06/29 04:58:26;;;;;;;17.30;12.10;;;;;;;;;;5092855;28;20028;-72
2023/06/29 05:00:54;;;;;;;16.85;12.00;;;;;;;;;;5093666;28;20020;-72
2023/06/29 05:03:20;;;;;;;18.90;12.10;;;;;;;;;;5093845;28;20491;-72
2023/06/29 05:05:47;;;;;;;17.48;11.57;;;;;;;;;;5093984;28;20034;-72
2023/06/29 05:08:13;;;;;;;21.08;13.05;;;;;;;;;;5093970;28;20024;-72
2023/06/29 05:10:39;;;;;;;16.48;11.30;;;;;;;;;;5093682;28;20024;-72
2023/06/29 05:13:06;;;;;;;22.95;12.45;;;;;;;;;;5093697;28;20020;-72
2023/06/29 05:15:32;;;;;;;20.58;12.82;;;;;;;;;;5093590;28;20028;-72
2023/06/29 05:17:58;;;;;;;20.52;12.25;;;;;;;;;;5093633;28;20400;-72
2023/06/29 05:20:25;;;;;;;19.75;11.40;;;;;;;;;;5093561;28;20053;-71
2023/06/29 05:22:51;;;;;;;21.77;12.02;;;;;;;;;;5093427;28;20484;-72
2023/06/29 05:25:17;;;;;;;23.23;13.20;;;;;;;;;;5093443;28;20028;-72
2023/06/29 05:27:44;;;;;;;22.90;12.63;;;;;;;;;;5093415;28;20042;-72
2023/06/29 05:30:10;;;;;;;21.27;12.90;;;;;;;;;;5094627;28;20043;-72
2023/06/29 05:32:37;;;;;;;22.15;12.40;;;;;;;;;;5113477;28;20377;-72
2023/06/29 05:35:04;;;;;;;21.00;12.63;;;;;;;;;;5095445;28;20027;-71
2023/06/29 05:37:32;;;;;;;19.52;11.68;;;;;;;;;;5113765;28;20015;-71
2023/06/29 05:39:58;;;;;;;19.15;12.05;;;;;;;;;;5113558;28;20030;-72
2023/06/29 05:42:24;;;;;;;19.77;13.05;;;;;;;;;;5113520;28;20016;-72
2023/06/29 05:44:52;;;;;;;19.55;13.00;;;;;;;;;;5094979;28;20039;-71
2023/06/29 05:47:18;;;;;;;22.92;12.10;;;;;;;;;;5113316;28;20095;-72
2023/06/29 05:49:45;;;;;;;19.83;12.43;;;;;;;;;;5113416;28;20479;-71
2023/06/29 05:52:11;;;;;;;20.20;13.13;;;;;;;;;;5095232;28;20027;-72
2023/06/29 05:54:41;;;;;;;20.88;12.75;;;;;;;;;;5112723;28;20034;-72
2023/06/29 05:57:07;;;;;;;19.52;11.93;;;;;;;;;;5113312;28;20031;-71
2023/06/29 05:59:33;;;;;;;16.48;12.07;;;;;;;;;;5113065;28;20023;-71
2023/06/29 06:01:59;;;;;;;24.92;13.35;;;;;;;;;;5113115;28;20514;-72
2023/06/29 06:04:26;;;;;;;17.17;11.73;;;;;;;;;;5113031;28;20042;-71
2023/06/29 06:06:52;;;;;;;18.38;12.38;;;;;;;;;;5113135;28;20018;-72
2023/06/29 06:09:19;;;;;;;17.08;12.50;;;;;;;;;;5113114;28;20095;-72
2023/06/29 06:11:45;;;;;;;21.45;12.38;;;;;;;;;;5113011;28;20025;-71
2023/06/29 06:14:11;;;;;;;20.73;12.20;;;;;;;;;;5112958;28;20028;-72
2023/06/29 06:16:37;;;;;;;18.30;12.13;;;;;;;;;;5109258;28;20501;-76
2023/06/29 06:19:04;;;;;;;18.48;12.95;;;;;;;;;;5108740;28;20068;-85
2023/06/29 06:21:30;;;;;;;21.50;12.27;;;;;;;;;;5110840;28;20024;-85
2023/06/29 06:23:56;;;;;;;21.55;12.68;;;;;;;;;;5111539;28;20046;-86
2023/06/29 06:26:23;;;;;;;24.50;12.32;;;;;;;;;;5111824;28;20020;-85
2023/06/29 06:28:50;;;;;;;22.20;11.85;;;;;;;;;;5111554;28;20024;-85
2023/06/29 06:31:17;;;;;;;22.65;12.50;;;;;;;;;;5111438;28;20032;-85
2023/06/29 06:33:45;;;;;;;18.58;11.85;;;;;;;;;;5109845;28;20028;-85
2023/06/29 06:36:11;;;;;;;18.30;12.15;;;;;;;;;;5083325;28;20024;-85
2023/06/29 06:38:38;;;;;;;19.55;12.50;;;;;;;;;;5070902;28;20031;-85
2023/06/29 06:41:04;;;;;;;19.50;11.68;;;;;;;;;;5111443;28;20008;-85
2023/06/29 06:43:30;;;;;;;26.42;12.48;;;;;;;;;;5120173;28;20389;-85
2023/06/29 06:45:57;;;;;;;25.65;12.85;;;;;;;;;;5113999;28;20034;-86
2023/06/29 06:48:23;;;;;;;24.17;12.98;;;;;;;;;;5100799;28;20015;-85
2023/06/29 06:50:49;;;;;;;18.33;12.00;;;;;;;;;;5119396;28;20532;-80
2023/06/29 06:53:16;;;;;;;23.23;11.93;;;;;;;;;;5092884;28;20019;-81
2023/06/29 06:55:42;;;;;;;24.13;12.52;;;;;;;;;;5110315;28;20044;-80
2023/06/29 06:58:08;;;;;;;23.35;11.95;;;;;;;;;;5110739;28;20030;-81
2023/06/29 07:00:35;;;;;;;17.73;11.82;;;;;;;;;;5104360;28;20453;-81
2023/06/29 07:03:01;;;;;;;20.83;13.32;;;;;;;;;;5073321;28;20036;-81
2023/06/29 07:05:27;;;;;;;17.83;11.85;;;;;;;;;;5104226;28;20034;-81
2023/06/29 07:07:54;;;;;;;16.60;11.55;;;;;;;;;;5114528;28;20027;-80
2023/06/29 07:10:21;;;;;;;17.77;11.40;;;;;;;;;;5115584;28;20020;-79
2023/06/29 07:12:47;;;;;;;18.58;11.77;;;;;;;;;;5096063;28;20035;-79
2023/06/29 07:15:13;;;;;;;16.77;11.15;;;;;;;;;;5115121;28;20024;-79
2023/06/29 07:17:40;;;;;;;15.70;11.55;;;;;;;;;;5115023;28;20023;-79
2023/06/29 07:20:06;;;;;;;20.45;12.02;;;;;;;;;;5115266;28;20075;-79
2023/06/29 07:22:33;;;;;;;21.60;11.63;;;;;;;;;;5115842;28;20375;-80
2023/06/29 07:25:00;;;;;;;18.98;11.68;;;;;;;;;;5115944;28;20042;-80
2023/06/29 07:27:26;;;;;;;19.98;11.48;;;;;;;;;;5109692;28;20023;-81
2023/06/29 07:29:53;;;;;;;24.17;12.20;;;;;;;;;;5095218;28;20510;-81
2023/06/29 07:32:19;;;;;;;18.23;11.95;;;;;;;;;;5110561;28;20040;-81
2023/06/29 07:34:46;;;;;;;21.58;11.52;;;;;;;;;;5107420;28;20105;-82
2023/06/29 07:37:12;;;;;;;18.83;12.38;;;;;;;;;;5104516;28;20028;-81
2023/06/29 07:39:38;;;;;;;19.05;11.82;;;;;;;;;;5103086;28;20518;-81
2023/06/29 07:42:05;;;;;;;21.77;12.70;;;;;;;;;;5103904;27;20027;-81
2023/06/29 07:44:31;;;;;;;17.92;11.95;;;;;;;;;;5116126;27;20024;-82
2023/06/29 07:46:58;;;;;;;20.88;12.20;;;;;;;;;;5120883;27;20459;-81
2023/06/29 07:49:25;;;;;;;19.17;12.90;;;;;;;;;;5113229;28;20031;-81
2023/06/29 07:51:51;;;;;;;18.05;12.85;;;;;;;;;;5114289;28;20055;-81
2023/06/29 07:54:18;;;;;;;25.75;13.07;;;;;;;;;;5111174;28;20032;-82
2023/06/29 07:56:44;;;;;;;17.48;13.02;;;;;;;;;;5094703;28;20020;-80
2023/06/29 07:59:11;;;;;;;19.27;13.35;;;;;;;;;;5112952;28;20023;-81
2023/06/29 08:01:37;;;;;;;22.83;13.40;;;;;;;;;;5114762;28;21082;-81
2023/06/29 08:04:03;;;;;;;18.77;12.95;;;;;;;;;;5111929;28;20052;-81
2023/06/29 08:06:31;;;;;;;24.65;13.85;;;;;;;;;;5114455;28;20028;-81
2023/06/29 08:08:58;;;;;;;21.30;13.82;;;;;;;;;;5113871;28;20034;-81
2023/06/29 08:11:24;;;;;;;21.88;12.98;;;;;;;;;;5110378;28;20020;-81
2023/06/29 08:13:50;;;;;;;23.27;14.68;;;;;;;;;;5110748;28;20421;-82
2023/06/29 08:16:17;;;;;;;23.83;15.98;;;;;;;;;;5113387;28;20032;-81
2023/06/29 08:18:43;;;;;;;24.75;16.25;;;;;;;;;;5107106;28;20016;-81
2023/06/29 08:21:12;;;;;;;23.90;16.27;;;;;;;;;;5111448;28;20022;-81
2023/06/29 08:23:39;;;;;;;24.33;17.02;;;;;;;;;;5083578;28;20040;-72
2023/06/29 08:26:05;;;;;;;24.42;16.60;;;;;;;;;;5106730;28;20915;-71
2023/06/29 08:28:31;;;;;;;21.95;16.25;;;;;;;;;;5104001;28;20027;-72
2023/06/29 08:30:58;;;;;;;24.00;16.13;;;;;;;;;;5114050;28;20046;-71
2023/06/29 08:33:24;;;;;;;26.85;16.73;;;;;;;;;;5114424;28;20022;-71
2023/06/29 08:35:51;;;;;;;25.55;16.52;;;;;;;;;;5114456;28;20028;-72
2023/06/29 08:38:18;;;;;;;25.08;15.45;;;;;;;;;;5114053;28;20034;-71
2023/06/29 08:40:46;;;;;;;22.58;15.43;;;;;;;;;;5095839;28;20474;-73
2023/06/29 08:43:15;;;;;;;22.38;15.20;;;;;;;;;;5111734;27;20024;-72
2023/06/29 08:45:42;;;;;;;21.40;15.63;;;;;;;;;;5113086;28;20579;-70
2023/06/29 08:48:10;;;;;;;21.90;14.45;;;;;;;;;;5113249;28;20026;-72
2023/06/29 08:50:37;;;;;;;22.70;16.05;;;;;;;;;;5113473;28;20020;-70
2023/06/29 08:53:03;;;;;;;22.52;15.77;;;;;;;;;;5113313;28;20024;-71
2023/06/29 08:55:30;;;;;;;28.35;16.25;;;;;;;;;;5105257;28;20032;-71
2023/06/29 08:57:56;;;;;;;23.45;15.10;;;;;;;;;;5106787;28;20012;-72
2023/06/29 09:00:23;;;;;;;23.48;15.75;;;;;;;;;;5106901;28;20020;-72
2023/06/29 09:02:53;;;;;;;31.45;15.73;;;;;;;;;;5104957;28;20030;-71
2023/06/29 09:05:19;;;;;;;38.75;16.13;;;;;;;;;;5102430;28;20030;-71
2023/06/29 09:07:45;;;;;;;25.05;15.45;;;;;;;;;;5100100;28;20032;-71
2023/06/29 09:10:12;;;;;;;25.98;15.65;;;;;;;;;;5101080;28;20396;-71
2023/06/29 09:12:38;;;;;;;21.38;14.68;;;;;;;;;;5102710;28;20016;-71
2023/06/29 09:15:11;;;;;;;26.35;14.63;;;;;;;;;;5085681;28;20022;-71
2023/06/29 09:17:37;;;;;;;23.55;14.95;;;;;;;;;;5095147;28;20032;-70
2023/06/29 09:20:13;;;;;;;21.20;15.07;;;;;;;;;;5113452;28;20022;-71
2023/06/29 09:22:40;;;;;;;23.98;15.07;;;;;;;;;;5112780;28;20488;-71
2023/06/29 09:25:09;;;;;;;24.30;14.82;;;;;;;;;;5113385;28;20034;-71
2023/06/29 09:27:35;;;;;;;21.60;14.57;;;;;;;;;;5113041;28;20020;-72
2023/06/29 09:30:02;;;;;;;24.95;14.35;;;;;;;;;;5112382;28;20391;-71
2023/06/29 09:32:29;;;;;;;19.15;14.10;;;;;;;;;;5094905;28;20092;-71
2023/06/29 09:34:55;;;;;;;23.17;14.90;;;;;;;;;;5112960;28;20054;-72
2023/06/29 09:37:22;;;;;;;23.23;14.55;;;;;;;;;;5112783;28;20393;-72
2023/06/29 09:40:04;;;;;;;23.25;13.95;;;;;;;;;;5111873;28;20028;-71
2023/06/29 09:42:36;;;;;;;21.48;14.35;;;;;;;;;;5111782;28;20042;-72
2023/06/29 09:45:07;;;;;;;20.70;13.75;;;;;;;;;;5094128;28;20042;-72
2023/06/29 09:47:34;;;;;;;;;;;;;;;;;;5112161;28;20015;-71
2023/06/29 09:50:01;;;;;;;24.30;13.73;;;;;;;;;;5111761;28;19903;-71
2023/06/29 09:52:27;;;;;;;22.40;13.30;;;;;;;;;;5112590;28;20019;-71
2023/06/29 09:54:57;;;;;;;20.77;13.85;;;;;;;;;;5094329;28;20044;-71
2023/06/29 09:57:24;;;;;;;21.75;13.98;;;;;;;;;;5112586;28;20030;-72
2023/06/29 09:59:51;;;;;;;19.98;14.20;;;;;;;;;;5092761;28;20035;-72
2023/06/29 10:02:18;;;;;;;23.48;14.02;;;;;;;;;;5102789;28;20039;-72
2023/06/29 10:04:45;;;;;;;19.02;13.02;;;;;;;;;;5100912;28;20036;-71
2023/06/29 10:07:21;;;;;;;24.13;14.43;;;;;;;;;;5073451;28;20042;-71
2023/06/29 10:09:49;;;;;;;17.15;13.65;;;;;;;;;;5104304;27;20024;-72
2023/06/29 10:12:17;;;;;;;18.77;13.35;;;;;;;;;;5111932;28;20332;-71
2023/06/29 10:14:45;;;;;;;21.30;12.27;;;;;;;;;;5111615;28;20024;-71
2023/06/29 10:17:19;;;;;;;15.25;12.30;;;;;;;;;;5092602;28;20023;-71
2023/06/29 10:19:46;;;;;;;20.60;12.30;;;;;;;;;;5111488;28;20060;-72
2023/06/29 10:22:14;;;;;;;25.55;13.00;;;;;;;;;;5110927;28;20391;-72
2023/06/29 10:24:44;;;;;;;16.77;12.68;;;;;;;;;;5111970;28;20508;-72
2023/06/29 10:27:10;;;;;;;15.35;12.48;;;;;;;;;;5111804;28;20510;-72
2023/06/29 10:29:44;;;;;;;17.15;12.20;;;;;;;;;;5112142;28;20510;-72
2023/06/29 10:32:28;;;;;;;19.75;12.98;;;;;;;;;;5111718;28;20042;-71
2023/06/29 10:35:09;;;;;;;17.13;12.73;;;;;;;;;;5112090;28;20028;-72
2023/06/29 10:37:37;;;;;;;18.27;12.50;;;;;;;;;;5112250;28;20020;-72
2023/06/29 10:40:05;;;;;;;23.50;13.63;;;;;;;;;;5111556;28;20024;-72
2023/06/29 10:42:37;;;;;;;23.45;12.30;;;;;;;;;;5112098;28;20069;-72
2023/06/29 10:45:23;;;;;;;19.15;12.95;;;;;;;;;;5112114;28;20039;-72
2023/06/29 10:47:56;;;;;;;21.92;13.07;;;;;;;;;;5111930;28;20506;-72
2023/06/29 10:50:24;;;;;;;16.38;12.73;;;;;;;;;;5111698;28;20046;-72
2023/06/29 10:52:51;;;;;;;19.17;12.48;;;;;;;;;;5112075;28;20023;-72
2023/06/29 10:55:18;;;;;;;16.60;12.43;;;;;;;;;;5111887;28;20020;-72
2023/06/29 10:57:49;;;;;;;18.10;12.80;;;;;;;;;;5112304;28;20030;-71
2023/06/29 11:00:15;;;;;;;18.42;11.82;;;;;;;;;;5111583;28;20406;-72
2023/06/29 11:02:42;;;;;;;19.65;12.23;;;;;;;;;;5112366;28;20028;-72
2023/06/29 11:05:13;;;;;;;17.60;11.75;;;;;;;;;;5111856;28;20050;-71
2023/06/29 11:07:41;;;;;;;18.10;11.85;;;;;;;;;;5112235;28;20514;-72
2023/06/29 11:10:08;;;;;;;15.95;11.25;;;;;;;;;;5112117;28;20425;-71
2023/06/29 11:12:37;;;;;;;16.48;11.35;;;;;;;;;;5112186;28;20383;-71
2023/06/29 11:15:04;;;;;;;16.92;11.52;;;;;;;;;;5112165;28;20030;-72
2023/06/29 11:17:30;;;;;;;18.73;11.57;;;;;;;;;;5112341;28;20041;-71
2023/06/29 11:19:57;;;;;;;24.00;12.07;;;;;;;;;;5111524;28;20032;-71
2023/06/29 11:22:24;;;;;;;17.63;11.10;;;;;;;;;;5106366;28;20012;-72
2023/06/29 11:24:51;;;;;;;21.23;11.20;;;;;;;;;;5110996;28;20040;-70
2023/06/29 11:27:17;;;;;;;17.75;12.18;;;;;;;;;;5111029;28;20028;-72
2023/06/29 11:29:43;;;;;;;16.60;11.38;;;;;;;;;;5111726;28;20020;-73
2023/06/29 11:32:13;;;;;;;14.48;11.20;;;;;;;;;;5110919;28;20050;-72
2023/06/29 11:34:39;;;;;;;18.03;11.90;;;;;;;;;;5111566;28;20038;-72
2023/06/29 11:37:06;;;;;;;17.20;11.73;;;;;;;;;;5111599;28;20026;-72
2023/06/29 11:39:32;;;;;;;16.27;11.30;;;;;;;;;;5114662;28;20026;-71
2023/06/29 11:41:59;;;;;;;16.92;11.38;;;;;;;;;;5082930;28;20031;-71
2023/06/29 11:44:26;;;;;;;19.13;11.98;;;;;;;;;;5110650;28;20508;-72
2023/06/29 11:46:56;;;;;;;15.48;12.18;;;;;;;;;;5110372;28;20557;-72
2023/06/29 11:49:23;;;;;;;;;;;;;;;;;;5108623;28;20028;-72
2023/06/29 11:51:50;;;;;;;16.02;12.60;;;;;;;;;;5111974;28;19914;-74
2023/06/29 11:54:16;;;;;;;17.88;12.70;;;;;;;;;;5114621;28;20483;-73
2023/06/29 11:56:43;;;;;;;19.70;13.60;;;;;;;;;;5113484;28;20468;-73
2023/06/29 11:59:10;;;;;;;18.45;13.32;;;;;;;;;;5113258;28;20042;-73
2023/06/29 12:01:39;;;;;;;15.98;11.57;;;;;;;;;;5112896;28;20019;-71
2023/06/29 12:04:07;;;;;;;18.42;14.85;;;;;;;;;;5114756;28;20046;-73
2023/06/29 12:06:34;;;;;;;17.17;13.38;;;;;;;;;;5114610;28;20467;-72
2023/06/29 12:09:00;;;;;;;20.33;14.15;;;;;;;;;;5114063;28;20372;-72
2023/06/29 12:11:27;;;;;;;18.98;14.00;;;;;;;;;;5114033;28;20031;-72
2023/06/29 12:13:54;;;;;;;23.10;14.30;;;;;;;;;;5092211;28;20043;-73
2023/06/29 12:16:20;;;;;;;20.77;14.18;;;;;;;;;;5106497;27;20024;-72
2023/06/29 12:18:50;;;;;;;24.02;14.32;;;;;;;;;;5113150;28;20478;-73
2023/06/29 12:21:19;;;;;;;23.15;14.43;;;;;;;;;;5093561;28;20362;-72
2023/06/29 12:23:46;;;;;;;20.77;13.97;;;;;;;;;;5108483;28;20496;-73
2023/06/29 12:26:14;;;;;;;18.83;13.40;;;;;;;;;;5113818;28;20068;-72
2023/06/29 12:28:41;;;;;;;19.15;13.45;;;;;;;;;;5110787;27;20042;-73
2023/06/29 12:31:07;;;;;;;18.02;13.90;;;;;;;;;;5106525;28;20036;-72
2023/06/29 12:33:34;;;;;;;26.98;15.68;;;;;;;;;;5113842;28;20031;-72
2023/06/29 12:36:00;;;;;;;19.42;13.88;;;;;;;;;;5088449;28;20035;-72
2023/06/29 12:38:26;;;;;;;18.42;13.98;;;;;;;;;;5094557;28;20395;-73
2023/06/29 12:40:53;;;;;;;22.52;14.43;;;;;;;;;;5100300;28;20031;-73
2023/06/29 12:43:19;;;;;;;27.63;17.58;;;;;;;;;;5100087;28;20480;-73
2023/06/29 12:45:46;;;;;;;18.52;14.68;;;;;;;;;;5081434;28;20024;-73
2023/06/29 12:48:12;;;;;;;23.02;15.65;;;;;;;;;;5113002;28;20031;-71
2023/06/29 12:50:38;;;;;;;22.17;16.00;;;;;;;;;;5113807;28;20046;-71
2023/06/29 12:53:05;;;;;;;21.35;16.17;;;;;;;;;;5095290;28;20028;-70
2023/06/29 12:55:31;;;;;;;21.10;15.73;;;;;;;;;;5113480;28;20028;-70
2023/06/29 12:57:57;;;;;;;20.27;15.65;;;;;;;;;;5112394;28;20028;-69
2023/06/29 13:00:24;;;;;;;22.50;16.58;;;;;;;;;;5111103;28;20030;-71
2023/06/29 13:02:52;;;;;;;31.90;17.98;;;;;;;;;;5087985;28;20023;-71
2023/06/29 13:05:19;;;;;;;23.02;16.38;;;;;;;;;;5086429;28;20450;-71
2023/06/29 13:07:45;;;;;;;21.35;16.23;;;;;;;;;;5091718;28;20023;-71
2023/06/29 13:10:11;;;;;;;24.63;17.90;;;;;;;;;;5101686;28;20408;-71
2023/06/29 13:12:39;;;;;;;23.80;17.35;;;;;;;;;;5092612;28;20024;-70
2023/06/29 13:15:06;;;;;;;23.98;16.08;;;;;;;;;;5093064;28;20016;-71
2023/06/29 13:17:32;;;;;;;25.45;17.90;;;;;;;;;;5115100;27;20054;-71
2023/06/29 13:19:59;;;;;;;21.52;17.15;;;;;;;;;;5115770;27;20023;-71
2023/06/29 13:22:25;;;;;;;23.85;16.40;;;;;;;;;;5111871;28;20518;-71
2023/06/29 13:24:52;;;;;;;22.40;16.88;;;;;;;;;;5112862;28;20028;-71
2023/06/29 13:27:18;;;;;;;26.05;18.00;;;;;;;;;;5112735;28;20019;-71
2023/06/29 13:29:44;;;;;;;26.05;17.30;;;;;;;;;;5112368;28;20023;-70
2023/06/29 13:32:10;;;;;;;23.65;17.50;;;;;;;;;;5106893;28;20035;-70
2023/06/29 13:34:37;;;;;;;22.17;17.63;;;;;;;;;;5102711;28;20027;-71
2023/06/29 13:37:03;;;;;;;24.88;18.15;;;;;;;;;;5111742;28;20012;-71
2023/06/29 13:39:30;;;;;;;26.30;18.55;;;;;;;;;;5111813;28;20028;-71
2023/06/29 13:41:56;;;;;;;24.35;17.95;;;;;;;;;;5112526;28;20020;-72
2023/06/29 13:44:22;;;;;;;23.95;17.75;;;;;;;;;;5112256;28;20032;-72
2023/06/29 13:46:49;;;;;;;23.02;18.75;;;;;;;;;;5109194;28;20495;-72
2023/06/29 13:49:16;;;;;;;25.90;18.27;;;;;;;;;;5094245;28;20038;-72
2023/06/29 13:51:42;;;;;;;28.05;19.30;;;;;;;;;;5112690;28;20028;-71
2023/06/29 13:54:08;;;;;;;27.30;18.88;;;;;;;;;;5112018;28;20026;-72
2023/06/29 13:56:37;;;;;;;26.20;19.63;;;;;;;;;;5112251;28;20028;-72
2023/06/29 13:59:06;;;;;;;29.67;20.23;;;;;;;;;;5112000;28;20011;-72
2023/06/29 14:01:35;;;;;;;25.05;19.13;;;;;;;;;;5111933;28;20072;-71
2023/06/29 14:04:01;;;;;;;27.23;20.02;;;;;;;;;;5102414;28;20023;-72
2023/06/29 14:06:27;;;;;;;28.15;19.98;;;;;;;;;;5111669;28;20023;-72
2023/06/29 14:08:54;;;;;;;26.30;19.27;;;;;;;;;;5100426;28;20031;-71
2023/06/29 14:11:20;;;;;;;32.42;20.60;;;;;;;;;;5102178;28;20030;-71
2023/06/29 14:13:46;;;;;;;26.60;19.90;;;;;;;;;;5111545;28;20020;-71
2023/06/29 14:16:13;;;;;;;26.08;19.80;;;;;;;;;;5118017;27;20015;-72
2023/06/29 14:18:39;;;;;;;27.27;20.40;;;;;;;;;;5110740;28;20027;-72
2023/06/29 14:21:05;;;;;;;32.00;21.38;;;;;;;;;;5112050;28;20421;-71
2023/06/29 14:23:32;;;;;;;34.22;19.33;;;;;;;;;;5111750;28;20039;-72
2023/06/29 14:25:59;;;;;;;30.02;20.52;;;;;;;;;;5111378;28;20027;-69
2023/06/29 14:28:25;;;;;;;30.40;18.63;;;;;;;;;;5105256;28;20035;-68